createdAt,value
2022-08-29T00:03:02.019Z,86.87
2022-08-29T00:06:26.521Z,87.30
2022-08-29T00:09:40.602Z,87.63
2022-08-29T00:13:04.684Z,87.17
2022-08-29T00:16:18.671Z,87.47
2022-08-29T00:19:38.350Z,88.05
2022-08-29T00:22:58.393Z,88.48
2022-08-29T00:26:05.627Z,88.29
2022-08-29T00:29:12.625Z,88.26
2022-08-29T00:32:19.095Z,88.32
2022-08-29T00:35:30.378Z,87.61
2022-08-29T00:38:42.683Z,87.43
2022-08-29T00:41:53.209Z,87.23
2022-08-29T00:45:00.905Z,87.52
2022-08-29T00:48:11.938Z,87.37
2022-08-29T00:51:25.118Z,87.62
2022-08-29T00:54:35.024Z,87.81
2022-08-29T00:57:46.970Z,87.65
2022-08-29T01:00:55.383Z,87.79
2022-08-29T01:04:01.272Z,87.24
2022-08-29T01:07:07.636Z,87.45
2022-08-29T01:10:36.576Z,87.59
2022-08-29T01:13:45.852Z,87.35
2022-08-29T01:16:54.781Z,87.52
2022-08-29T01:20:09.104Z,88.30
2022-08-29T01:23:18.537Z,88.61
2022-08-29T01:26:33.029Z,88.41
2022-08-29T01:29:59.354Z,88.16
2022-08-29T01:33:14.769Z,88.65
2022-08-29T01:40:21.420Z,88.36
2022-08-29T01:43:36.628Z,88.40
2022-08-29T01:47:06.039Z,88.62
2022-08-29T01:50:31.644Z,89.22
2022-08-29T01:53:45.382Z,89.18
2022-08-29T01:57:01.096Z,89.30
2022-08-29T02:00:24.155Z,89.26
2022-08-29T02:03:44.629Z,88.97
2022-08-29T02:06:57.147Z,88.83
2022-08-29T02:10:02.824Z,88.71
2022-08-29T02:13:17.083Z,89.13
2022-08-29T02:16:41.244Z,88.80
2022-08-29T02:19:56.029Z,88.62
2022-08-29T02:23:30.278Z,88.14
2022-08-29T02:26:43.738Z,88.57
2022-08-29T02:29:53.643Z,88.72
2022-08-29T02:33:07.060Z,88.91
2022-08-29T02:36:21.634Z,88.90
2022-08-29T02:39:39.270Z,88.78
2022-08-29T02:42:44.365Z,89.15
2022-08-29T02:45:49.904Z,88.76
2022-08-29T02:49:28.956Z,88.96
2022-08-29T02:52:39.670Z,88.71
2022-08-29T02:55:47.193Z,88.93
2022-08-29T02:58:55.132Z,88.80
2022-08-29T03:02:00.495Z,88.37
2022-08-29T03:05:15.343Z,88.60
2022-08-29T03:08:32.630Z,88.42
2022-08-29T03:11:43.616Z,87.78
2022-08-29T03:14:50.703Z,88.11
2022-08-29T03:17:55.785Z,88.06
2022-08-29T03:21:00.525Z,88.41
2022-08-29T03:24:03.654Z,88.11
2022-08-29T03:27:06.553Z,88.26
2022-08-29T03:30:12.458Z,88.46
2022-08-29T03:33:15.209Z,88.53
2022-08-29T03:36:19.971Z,88.18
2022-08-29T03:39:22.693Z,88.67
2022-08-29T03:42:26.006Z,88.46
2022-08-29T03:45:29.577Z,88.29
2022-08-29T03:48:33.253Z,88.07
2022-08-29T03:51:39.870Z,88.24
2022-08-29T03:54:42.731Z,87.89
2022-08-29T03:57:45.585Z,87.61
2022-08-29T04:00:48.288Z,88.03
2022-08-29T04:03:51.335Z,88.08
2022-08-29T04:06:57.109Z,88.22
2022-08-29T04:10:01.651Z,88.24
2022-08-29T04:13:10.123Z,87.92
2022-08-29T04:16:18.108Z,88.11
2022-08-29T04:19:22.703Z,88.21
2022-08-29T04:22:26.852Z,88.27
2022-08-29T04:25:37.309Z,88.42
2022-08-29T04:28:40.532Z,88.94
2022-08-29T04:31:50.589Z,88.94
2022-08-29T04:34:57.281Z,88.70
2022-08-29T04:38:18.092Z,87.70
2022-08-29T04:41:22.875Z,87.56
2022-08-29T04:44:25.595Z,87.84
2022-08-29T04:47:28.308Z,88.20
2022-08-29T04:50:31.582Z,88.49
2022-08-29T04:53:36.431Z,87.87
2022-08-29T04:56:44.346Z,88.10
2022-08-29T04:59:55.197Z,88.68
2022-08-29T05:02:58.083Z,88.32
2022-08-29T05:06:03.176Z,89.10
2022-08-29T05:09:07.260Z,89.07
2022-08-29T05:12:10.444Z,88.90
2022-08-29T05:15:14.354Z,88.77
2022-08-29T05:18:18.493Z,88.50
2022-08-29T05:21:27.038Z,88.43
2022-08-29T05:24:31.701Z,88.89
2022-08-29T05:27:34.921Z,88.85
2022-08-29T05:30:38.706Z,89.06
2022-08-29T05:33:41.718Z,89.32
2022-08-29T05:36:45.190Z,89.39
2022-08-29T05:39:52.401Z,88.93
2022-08-29T05:42:55.169Z,89.10
2022-08-29T05:46:03.664Z,88.88
2022-08-29T05:49:06.578Z,88.36
2022-08-29T05:52:10.627Z,88.48
2022-08-29T05:55:14.848Z,88.06
2022-08-29T05:58:18.311Z,88.20
2022-08-29T06:01:26.033Z,87.25
2022-08-29T06:04:29.229Z,86.68
2022-08-29T06:07:33.129Z,85.60
2022-08-29T06:10:41.552Z,84.71
2022-08-29T06:13:44.542Z,82.78
2022-08-29T06:16:47.322Z,81.54
2022-08-29T06:19:52.403Z,79.87
2022-08-29T06:22:55.337Z,79.33
2022-08-29T06:26:00.176Z,78.35
2022-08-29T06:29:06.471Z,77.05
2022-08-29T06:32:09.300Z,76.61
2022-08-29T06:35:12.193Z,75.90
2022-08-29T06:38:15.448Z,74.42
2022-08-29T06:41:20.859Z,73.44
2022-08-29T06:44:23.870Z,70.14
2022-08-29T06:47:26.657Z,65.28
2022-08-29T06:50:29.397Z,60.24
2022-08-29T06:53:32.848Z,56.26
2022-08-29T06:56:38.274Z,49.99
2022-08-29T06:59:41.209Z,48.18
2022-08-29T07:02:44.028Z,48.00
2022-08-29T07:05:55.072Z,48.70
2022-08-29T07:08:58.812Z,48.77
2022-08-29T07:12:03.588Z,51.75
2022-08-29T07:15:07.369Z,54.75
2022-08-29T07:18:10.109Z,56.24
2022-08-29T07:21:20.122Z,58.17
2022-08-29T07:24:25.008Z,58.22
2022-08-29T07:27:29.267Z,59.17
2022-08-29T07:30:32.948Z,59.71
2022-08-29T07:33:35.960Z,60.99
2022-08-29T07:36:39.745Z,60.86
2022-08-29T07:39:42.465Z,59.79
2022-08-29T07:42:46.614Z,59.72
2022-08-29T07:45:49.388Z,60.08
2022-08-29T07:48:53.551Z,60.31
2022-08-29T07:51:56.726Z,60.48
2022-08-29T07:54:59.545Z,59.74
2022-08-29T07:58:04.779Z,60.51
2022-08-29T08:01:08.189Z,59.86
2022-08-29T08:04:15.386Z,58.15
2022-08-29T08:07:18.767Z,60.42
2022-08-29T08:10:22.113Z,59.99
2022-08-29T08:13:27.925Z,60.55
2022-08-29T08:16:31.812Z,59.30
2022-08-29T08:19:34.555Z,59.37
2022-08-29T08:22:38.286Z,57.64
2022-08-29T08:25:41.030Z,57.89
2022-08-29T08:28:45.738Z,57.83
2022-08-29T08:31:51.650Z,56.41
2022-08-29T08:34:54.431Z,56.47
2022-08-29T08:37:57.559Z,55.72
2022-08-29T08:41:07.170Z,56.02
2022-08-29T08:44:29.691Z,56.77
2022-08-29T08:47:40.479Z,57.33
2022-08-29T08:50:52.417Z,55.79
2022-08-29T08:54:00.358Z,53.91
2022-08-29T08:57:08.004Z,54.16
2022-08-29T09:00:13.395Z,54.20
2022-08-29T09:03:46.698Z,53.02
2022-08-29T09:07:04.477Z,53.54
2022-08-29T09:10:23.702Z,52.95
2022-08-29T09:13:38.492Z,52.48
2022-08-29T09:16:47.637Z,52.49
2022-08-29T09:19:51.849Z,52.98
2022-08-29T09:23:00.688Z,52.01
2022-08-29T09:26:03.497Z,51.85
2022-08-29T09:29:09.839Z,51.40
2022-08-29T09:32:20.156Z,51.83
2022-08-29T09:35:29.391Z,51.35
2022-08-29T09:38:32.130Z,49.72
2022-08-29T09:41:34.978Z,50.44
2022-08-29T09:44:38.520Z,51.32
2022-08-29T09:47:42.659Z,51.45
2022-08-29T09:50:45.669Z,50.35
2022-08-29T09:53:49.159Z,50.48
2022-08-29T09:56:59.865Z,49.79
2022-08-29T10:00:13.467Z,50.30
2022-08-29T10:03:24.604Z,49.52
2022-08-29T10:06:29.908Z,49.41
2022-08-29T10:09:32.712Z,48.94
2022-08-29T10:12:46.897Z,48.66
2022-08-29T10:15:55.423Z,48.22
2022-08-29T10:19:02.833Z,48.50
2022-08-29T10:22:18.721Z,48.77
2022-08-29T10:25:29.823Z,47.42
2022-08-29T10:28:39.436Z,48.66
2022-08-29T10:31:47.906Z,48.10
2022-08-29T10:35:05.708Z,48.16
2022-08-29T10:38:16.395Z,47.30
2022-08-29T10:41:32.098Z,46.55
2022-08-29T10:44:41.273Z,45.82
2022-08-29T10:47:53.270Z,48.38
2022-08-29T10:51:11.761Z,46.97
2022-08-29T10:54:33.353Z,46.42
2022-08-29T10:57:47.194Z,46.52
2022-08-29T11:00:56.435Z,47.14
2022-08-29T11:04:09.709Z,47.45
2022-08-29T11:07:18.800Z,46.92
2022-08-29T11:10:26.990Z,46.46
2022-08-29T11:13:36.055Z,46.85
2022-08-29T11:16:45.267Z,44.51
2022-08-29T11:19:58.929Z,44.95
2022-08-29T11:23:09.638Z,45.67
2022-08-29T11:26:20.052Z,45.54
2022-08-29T11:29:33.260Z,45.33
2022-08-29T11:32:45.359Z,46.06
2022-08-29T11:36:05.021Z,44.78
2022-08-29T11:39:46.910Z,43.72
2022-08-29T11:42:52.438Z,44.51
2022-08-29T11:45:59.413Z,43.81
2022-08-29T11:49:27.173Z,41.29
2022-08-29T11:52:31.392Z,39.27
2022-08-29T11:55:37.914Z,41.23
2022-08-29T11:58:46.383Z,41.46
2022-08-29T12:02:01.813Z,41.13
2022-08-29T12:05:06.672Z,42.13
2022-08-29T12:08:36.028Z,41.45
2022-08-29T12:12:28.434Z,39.54
2022-08-29T12:15:54.708Z,38.80
2022-08-29T12:18:59.918Z,39.37
2022-08-29T12:22:02.756Z,39.48
2022-08-29T12:25:30.846Z,39.53
2022-08-29T12:28:44.444Z,39.41
2022-08-29T12:32:23.069Z,37.87
2022-08-29T12:35:46.500Z,38.90
2022-08-29T12:39:05.479Z,37.60
2022-08-29T12:42:22.035Z,37.66
2022-08-29T12:45:27.782Z,37.71
2022-08-29T12:48:37.880Z,38.27
2022-08-29T12:51:52.430Z,39.28
2022-08-29T12:54:56.841Z,39.85
2022-08-29T12:58:00.003Z,39.12
2022-08-29T13:01:03.971Z,37.97
2022-08-29T13:04:14.739Z,39.00
2022-08-29T13:07:19.826Z,39.03
2022-08-29T13:10:23.285Z,38.24
2022-08-29T13:13:26.815Z,38.44
2022-08-29T13:16:32.000Z,36.79
2022-08-29T13:19:35.038Z,38.20
2022-08-29T13:22:39.136Z,36.90
2022-08-29T13:25:51.305Z,36.33
2022-08-29T13:28:56.196Z,37.13
2022-08-29T13:32:27.445Z,37.31
2022-08-29T13:35:32.825Z,37.72
2022-08-29T13:38:36.934Z,36.21
2022-08-29T13:41:39.691Z,38.21
2022-08-29T13:44:59.112Z,37.97
2022-08-29T13:48:20.246Z,36.65
2022-08-29T13:51:22.934Z,38.39
2022-08-29T13:54:30.800Z,37.67
2022-08-29T13:57:34.710Z,38.25
2022-08-29T14:00:37.924Z,38.55
2022-08-29T14:03:41.145Z,40.26
2022-08-29T14:06:44.028Z,38.95
2022-08-29T14:09:48.618Z,38.41
2022-08-29T14:12:51.480Z,36.91
2022-08-29T14:15:54.454Z,36.72
2022-08-29T14:18:57.253Z,38.10
2022-08-29T14:22:00.503Z,37.61
2022-08-29T14:25:05.712Z,38.19
2022-08-29T14:28:09.409Z,38.68
2022-08-29T14:31:16.077Z,38.64
2022-08-29T14:34:19.125Z,37.28
2022-08-29T14:37:21.878Z,37.63
2022-08-29T14:40:29.111Z,36.70
2022-08-29T14:43:34.282Z,37.65
2022-08-29T14:46:40.487Z,36.62
2022-08-29T14:49:43.366Z,35.91
2022-08-29T14:52:46.229Z,35.88
2022-08-29T14:55:50.344Z,36.45
2022-08-29T14:58:53.094Z,36.13
2022-08-29T15:01:56.018Z,36.98
2022-08-29T15:04:59.268Z,36.51
2022-08-29T15:08:06.355Z,36.85
2022-08-29T15:11:11.765Z,36.35
2022-08-29T15:14:14.805Z,37.37
2022-08-29T15:17:17.686Z,37.93
2022-08-29T15:20:40.145Z,36.66
2022-08-29T15:23:47.552Z,36.23
2022-08-29T15:26:54.033Z,36.43
2022-08-29T15:29:59.801Z,36.27
2022-08-29T15:33:05.435Z,36.93
2022-08-29T15:36:10.571Z,36.85
2022-08-29T15:39:15.647Z,37.57
2022-08-29T15:42:24.588Z,36.65
2022-08-29T15:45:31.911Z,37.02
2022-08-29T15:48:36.967Z,37.49
2022-08-29T15:51:41.737Z,38.43
2022-08-29T15:54:47.322Z,39.32
2022-08-29T15:57:54.397Z,38.63
2022-08-29T16:00:59.749Z,38.48
2022-08-29T16:04:05.799Z,40.14
2022-08-29T16:07:13.195Z,39.14
2022-08-29T16:10:19.991Z,40.27
2022-08-29T16:13:26.508Z,39.53
2022-08-29T16:16:31.615Z,38.84
2022-08-29T16:19:38.223Z,39.98
2022-08-29T16:22:44.830Z,40.46
2022-08-29T16:25:50.316Z,39.41
2022-08-29T16:28:56.770Z,39.69
2022-08-29T16:32:01.986Z,39.33
2022-08-29T16:35:07.743Z,38.99
2022-08-29T16:38:13.145Z,39.81
2022-08-29T16:41:21.962Z,39.12
2022-08-29T16:44:28.381Z,39.89
2022-08-29T16:47:33.400Z,39.87
2022-08-29T16:50:40.488Z,40.89
2022-08-29T16:53:46.258Z,41.46
2022-08-29T16:56:51.370Z,43.34
2022-08-29T16:59:57.768Z,44.58
2022-08-29T17:03:02.683Z,43.47
2022-08-29T17:06:08.038Z,44.49
2022-08-29T17:09:11.208Z,44.87
2022-08-29T17:12:14.834Z,46.86
2022-08-29T17:15:21.023Z,45.96
2022-08-29T17:18:26.010Z,45.31
2022-08-29T17:21:32.373Z,47.33
2022-08-29T17:24:38.935Z,49.22
2022-08-29T17:28:00.823Z,51.20
2022-08-29T17:31:11.409Z,50.77
2022-08-29T17:34:16.772Z,51.21
2022-08-29T17:37:21.871Z,49.99
2022-08-29T17:40:27.653Z,49.46
2022-08-29T17:43:33.470Z,50.54
2022-08-29T17:46:39.919Z,51.17
2022-08-29T17:49:45.165Z,52.32
2022-08-29T17:52:50.364Z,53.13
2022-08-29T17:55:55.594Z,52.24
2022-08-29T17:59:05.908Z,50.35
2022-08-29T18:02:13.734Z,51.77
2022-08-29T18:05:18.742Z,51.78
2022-08-29T18:08:23.616Z,55.21
2022-08-29T18:11:28.940Z,54.93
2022-08-29T18:14:34.343Z,55.30
2022-08-29T18:17:41.614Z,55.33
2022-08-29T18:20:46.495Z,56.47
2022-08-29T18:23:53.640Z,57.04
2022-08-29T18:26:58.799Z,57.56
2022-08-29T18:30:04.529Z,58.25
2022-08-29T18:33:13.166Z,57.59
2022-08-29T18:36:18.598Z,56.94
2022-08-29T18:39:25.382Z,56.13
2022-08-29T18:42:40.411Z,56.56
2022-08-29T18:45:47.998Z,56.33
2022-08-29T18:48:55.119Z,55.12
2022-08-29T18:51:59.875Z,56.41
2022-08-29T18:55:05.183Z,56.66
2022-08-29T18:58:10.643Z,57.92
2022-08-29T19:01:26.918Z,58.28
2022-08-29T19:04:34.852Z,58.08
2022-08-29T19:07:40.354Z,57.78
2022-08-29T19:10:47.118Z,57.77
2022-08-29T19:13:52.990Z,58.33
2022-08-29T19:17:03.277Z,58.94
2022-08-29T19:20:29.492Z,58.35
2022-08-29T19:23:36.729Z,58.89
2022-08-29T19:26:41.814Z,59.56
2022-08-29T19:29:48.618Z,59.18
2022-08-29T19:32:54.565Z,59.96
2022-08-29T19:36:01.168Z,60.44
2022-08-29T19:39:06.314Z,60.32
2022-08-29T19:42:16.805Z,60.93
2022-08-29T19:45:22.423Z,60.54
2022-08-29T19:48:27.784Z,62.13
2022-08-29T19:51:34.272Z,61.51
2022-08-29T19:54:41.116Z,62.36
2022-08-29T19:57:51.937Z,62.26
2022-08-29T20:00:56.991Z,62.83
2022-08-29T20:04:02.090Z,63.21
2022-08-29T20:07:08.536Z,63.46
2022-08-29T20:10:15.052Z,63.40
2022-08-29T20:13:20.754Z,63.00
2022-08-29T20:16:28.757Z,63.95
2022-08-29T20:19:33.726Z,63.53
2022-08-29T20:22:41.674Z,63.42
2022-08-29T20:25:48.021Z,63.71
2022-08-29T20:28:54.597Z,64.27
2022-08-29T20:32:00.786Z,64.82
2022-08-29T20:35:06.156Z,63.81
2022-08-29T20:38:11.784Z,64.51
2022-08-29T20:41:21.305Z,65.41
2022-08-29T20:44:30.217Z,65.13
2022-08-29T20:47:38.784Z,65.18
2022-08-29T20:50:43.509Z,65.21
2022-08-29T20:53:50.439Z,65.47
2022-08-29T20:56:56.991Z,66.02
2022-08-29T21:00:02.161Z,66.87
2022-08-29T21:03:23.513Z,67.05
2022-08-29T21:06:28.583Z,67.69
2022-08-29T21:09:35.845Z,66.77
2022-08-29T21:12:40.882Z,66.62
2022-08-29T21:15:46.586Z,67.00
2022-08-29T21:18:53.882Z,67.02
2022-08-29T21:21:59.944Z,67.80
2022-08-29T21:25:06.880Z,67.23
2022-08-29T21:28:13.972Z,67.13
2022-08-29T21:31:22.024Z,68.07
2022-08-29T21:34:27.779Z,67.84
2022-08-29T21:37:32.545Z,68.28
2022-08-29T21:40:44.055Z,68.82
2022-08-29T21:43:56.191Z,69.68
2022-08-29T21:47:01.596Z,69.69
2022-08-29T21:50:06.671Z,70.11
2022-08-29T21:53:15.046Z,68.86
2022-08-29T21:56:23.234Z,68.70
2022-08-29T21:59:28.385Z,68.97
2022-08-29T22:02:33.968Z,69.16
2022-08-29T22:05:43.054Z,69.81
2022-08-29T22:08:49.319Z,69.72
2022-08-29T22:11:56.348Z,69.49
2022-08-29T22:15:17.470Z,70.10
2022-08-29T22:18:22.892Z,70.82
2022-08-29T22:21:29.310Z,70.56
2022-08-29T22:24:34.655Z,70.82
2022-08-29T22:27:41.320Z,70.54
2022-08-29T22:30:46.299Z,70.91
2022-08-29T22:33:52.012Z,70.85
2022-08-29T22:36:57.159Z,71.93
2022-08-29T22:40:02.510Z,72.18
2022-08-29T22:43:08.698Z,71.74
2022-08-29T22:46:15.372Z,72.54
2022-08-29T22:49:19.977Z,72.32
2022-08-29T22:52:24.967Z,72.52
2022-08-29T22:55:32.670Z,72.89
2022-08-29T22:58:38.838Z,73.33
2022-08-29T23:01:45.866Z,73.62
2022-08-29T23:04:51.429Z,72.98
2022-08-29T23:07:57.538Z,73.54
2022-08-29T23:11:02.597Z,73.80
2022-08-29T23:14:12.592Z,73.67
2022-08-29T23:17:18.974Z,73.95
2022-08-29T23:20:23.873Z,73.94
2022-08-29T23:23:33.923Z,74.32
2022-08-29T23:26:39.229Z,74.78
2022-08-29T23:29:45.943Z,74.88
2022-08-29T23:32:51.163Z,74.73
2022-08-29T23:35:57.872Z,74.91
2022-08-29T23:39:02.954Z,75.45
2022-08-29T23:42:07.942Z,75.59
2022-08-29T23:45:14.921Z,75.28
2022-08-29T23:48:23.034Z,76.25
2022-08-29T23:51:31.455Z,75.42
2022-08-29T23:54:38.025Z,75.93
2022-08-29T23:57:43.543Z,76.30
